Time;durP1;ratioP1;P1;durP2;ratioP2;P2;SDS_P1;SDS_P2;PMS_P1;PMS_P2;Temp;Humidity;BMP_temperature;BMP_pressure;BME280_temperature;BME280_humidity;BME280_pressure;Samples;Min_cycle;Max_cycle;Signal;HPM_P1;HPM_P2
2020/12/16 00:00:14;;;;;;;21.60;12.73;;;7.60;99.90;;;;;;5014338;28;20030;-61
2020/12/16 00:02:41;;;;;;;17.88;13.07;;;7.60;99.90;;;;;;4981819;28;20098;-60
2020/12/16 00:05:10;;;;;;;16.95;12.35;;;7.60;99.90;;;;;;5022910;28;20534;-60
2020/12/16 00:07:36;;;;;;;16.38;12.43;;;7.70;99.90;;;;;;5038096;28;20017;-60
2020/12/16 00:10:05;;;;;;;19.15;12.07;;;7.70;99.90;;;;;;5034014;28;20773;-59
2020/12/16 00:12:30;;;;;;;16.85;12.55;;;7.70;99.90;;;;;;5029554;28;20017;-61
2020/12/16 00:14:56;;;;;;;17.13;12.40;;;7.70;99.90;;;;;;5030183;28;20022;-61
2020/12/16 00:17:23;;;;;;;15.77;11.52;;;7.70;99.90;;;;;;5029586;28;20030;-61
2020/12/16 00:19:48;;;;;;;16.60;11.82;;;7.70;99.90;;;;;;5024157;28;20034;-60
2020/12/16 00:22:14;;;;;;;16.80;11.68;;;7.70;99.90;;;;;;5033804;28;20028;-60
2020/12/16 00:24:40;;;;;;;18.77;12.57;;;7.70;99.90;;;;;;5037946;28;20029;-60
2020/12/16 00:27:10;;;;;;;21.10;12.75;;;7.70;99.90;;;;;;5039487;28;20098;-61
2020/12/16 00:29:36;;;;;;;18.67;11.88;;;7.70;99.90;;;;;;5035102;28;20068;-61
2020/12/16 00:32:04;;;;;;;17.40;12.10;;;7.70;99.90;;;;;;5044715;28;20032;-61
2020/12/16 00:34:29;;;;;;;17.98;13.10;;;7.70;99.90;;;;;;5037051;28;20124;-61
2020/12/16 00:36:55;;;;;;;19.98;13.75;;;7.70;99.90;;;;;;5031637;28;20156;-61
2020/12/16 00:39:20;;;;;;;20.65;13.75;;;7.70;99.90;;;;;;5040240;28;20061;-59
2020/12/16 00:41:46;;;;;;;21.38;13.07;;;7.70;99.90;;;;;;5038204;28;20509;-61
2020/12/16 00:44:11;;;;;;;20.02;13.43;;;7.70;99.90;;;;;;5042183;28;20499;-61
2020/12/16 00:46:37;;;;;;;19.15;13.07;;;7.70;99.90;;;;;;5036790;28;20545;-62
2020/12/16 00:49:02;;;;;;;19.27;12.80;;;7.70;99.90;;;;;;5044416;28;20379;-62
2020/12/16 00:51:28;;;;;;;20.05;13.77;;;7.80;99.90;;;;;;5031871;28;20016;-62
2020/12/16 00:53:54;;;;;;;23.63;14.65;;;7.80;99.90;;;;;;5031463;28;20026;-62
2020/12/16 00:56:19;;;;;;;19.60;13.25;;;7.80;99.90;;;;;;5035454;28;20036;-60
2020/12/16 00:58:45;;;;;;;19.60;12.98;;;7.70;99.90;;;;;;5037319;28;20239;-61
2020/12/16 01:01:11;;;;;;;19.42;13.23;;;7.70;99.90;;;;;;5037744;28;20041;-59
2020/12/16 01:03:36;;;;;;;23.20;13.82;;;7.70;99.90;;;;;;4982149;28;20053;-61
2020/12/16 01:06:02;;;;;;;22.90;14.68;;;7.70;99.90;;;;;;5027502;28;20039;-61
2020/12/16 01:08:28;;;;;;;24.45;14.45;;;7.70;99.90;;;;;;5039073;28;20033;-60
2020/12/16 01:10:53;;;;;;;20.40;12.90;;;7.70;99.90;;;;;;5032057;28;20041;-62
2020/12/16 01:13:19;;;;;;;20.27;13.65;;;7.70;99.90;;;;;;5037253;28;20033;-61
2020/12/16 01:15:44;;;;;;;24.50;13.65;;;7.70;99.90;;;;;;5034926;28;20028;-62
2020/12/16 01:18:10;;;;;;;26.50;14.15;;;7.70;99.90;;;;;;5041849;28;20132;-62
2020/12/16 01:20:36;;;;;;;21.45;14.48;;;7.70;99.90;;;;;;5037132;28;20030;-62
2020/12/16 01:23:01;;;;;;;20.50;13.98;;;7.70;99.90;;;;;;5043264;28;20560;-62
2020/12/16 01:25:27;;;;;;;27.35;16.80;;;7.70;99.90;;;;;;5038715;28;20628;-61
2020/12/16 01:27:59;;;;;;;23.50;14.82;;;7.70;99.90;;;;;;5033225;28;20029;-61
2020/12/16 01:30:25;;;;;;;26.40;15.98;;;7.70;99.90;;;;;;5030976;28;20076;-60
2020/12/16 01:32:51;;;;;;;23.60;16.05;;;7.70;99.90;;;;;;5024825;28;20049;-61
2020/12/16 01:35:17;;;;;;;25.75;15.82;;;7.70;99.90;;;;;;5026716;28;20513;-61
2020/12/16 01:37:43;;;;;;;26.08;16.27;;;7.70;99.90;;;;;;5038757;28;20025;-60
2020/12/16 01:40:10;;;;;;;25.13;15.98;;;7.70;99.90;;;;;;5035652;28;20398;-62
2020/12/16 01:42:39;;;;;;;29.55;15.73;;;7.70;99.90;;;;;;5034233;28;20645;-61
2020/12/16 01:45:22;;;;;;;26.00;16.00;;;7.70;99.90;;;;;;5037338;28;20104;-60
2020/12/16 01:47:48;;;;;;;25.02;15.13;;;7.70;99.90;;;;;;5038035;28;20028;-62
2020/12/16 01:50:14;;;;;;;23.25;15.43;;;7.70;99.90;;;;;;5034102;28;20084;-62
2020/12/16 01:52:41;;;;;;;26.33;16.25;;;7.70;99.90;;;;;;5037297;28;20017;-61
2020/12/16 01:55:09;;;;;;;24.75;15.80;;;7.70;99.90;;;;;;5039190;28;20055;-62
2020/12/16 01:57:38;;;;;;;25.17;15.45;;;7.70;99.90;;;;;;5030004;28;20032;-62
2020/12/16 02:00:07;;;;;;;27.42;16.20;;;7.70;99.90;;;;;;5041020;28;20025;-61
2020/12/16 02:02:44;;;;;;;29.13;16.95;;;7.70;99.90;;;;;;5033255;28;20043;-62
2020/12/16 02:05:14;;;;;;;25.75;16.88;;;7.70;99.90;;;;;;5024885;28;20045;-61
2020/12/16 02:07:43;;;;;;;25.10;16.63;;;7.70;99.90;;;;;;5040110;28;20116;-60
2020/12/16 02:10:09;;;;;;;27.33;16.52;;;7.70;99.90;;;;;;5031998;28;20018;-62
2020/12/16 02:12:35;;;;;;;28.63;17.25;;;7.70;99.90;;;;;;5042199;28;20112;-61
2020/12/16 02:15:06;;;;;;;26.67;15.85;;;7.70;99.90;;;;;;5031554;28;20032;-63
2020/12/16 02:17:32;;;;;;;25.35;14.50;;;7.70;99.90;;;;;;5042598;28;20633;-62
2020/12/16 02:19:59;;;;;;;24.40;15.45;;;7.70;99.90;;;;;;5030051;28;20061;-62
2020/12/16 02:22:26;;;;;;;23.75;15.25;;;7.60;99.90;;;;;;5042472;28;20116;-61
2020/12/16 02:25:03;;;;;;;26.70;16.75;;;7.60;99.90;;;;;;5035863;28;20681;-62
2020/12/16 02:27:29;;;;;;;28.60;17.08;;;7.60;99.90;;;;;;5040261;28;20021;-61
2020/12/16 02:29:55;;;;;;;30.80;17.92;;;7.60;99.90;;;;;;5035581;28;20574;-60
2020/12/16 02:32:24;;;;;;;29.13;17.85;;;7.60;99.90;;;;;;5034071;28;20709;-62
2020/12/16 02:34:50;;;;;;;31.73;17.83;;;7.60;99.90;;;;;;5037672;28;20053;-63
2020/12/16 02:37:16;;;;;;;27.17;17.10;;;7.60;99.90;;;;;;5036029;28;20073;-62
2020/12/16 02:39:42;;;;;;;30.52;16.98;;;7.70;99.90;;;;;;5040165;28;20063;-62
2020/12/16 02:42:09;;;;;;;26.80;16.45;;;7.60;99.90;;;;;;5040274;28;20439;-61
2020/12/16 02:44:35;;;;;;;26.15;17.52;;;7.70;99.90;;;;;;5038197;28;20057;-61
2020/12/16 02:47:02;;;;;;;31.02;17.65;;;7.70;99.90;;;;;;5035762;28;20075;-62
2020/12/16 02:49:28;;;;;;;23.90;14.73;;;7.70;99.90;;;;;;5029981;28;20491;-60
2020/12/16 02:51:54;;;;;;;26.30;17.50;;;7.70;99.90;;;;;;5041399;28;20056;-61
2020/12/16 02:54:21;;;;;;;28.70;17.98;;;7.70;99.90;;;;;;5029971;28;20034;-61
2020/12/16 02:56:48;;;;;;;26.05;16.98;;;7.80;99.90;;;;;;5028823;28;20030;-62
2020/12/16 02:59:14;;;;;;;28.95;17.85;;;7.80;99.90;;;;;;5035318;28;20513;-63
2020/12/16 03:01:39;;;;;;;26.20;16.65;;;7.80;99.90;;;;;;5042026;28;20033;-61
2020/12/16 03:04:05;;;;;;;23.23;16.33;;;7.80;99.90;;;;;;5018325;28;20037;-62
2020/12/16 03:06:30;;;;;;;24.67;16.23;;;7.80;99.90;;;;;;5040384;28;20033;-62
2020/12/16 03:08:56;;;;;;;24.65;16.33;;;7.80;99.90;;;;;;5042501;28;20094;-63
2020/12/16 03:11:21;;;;;;;24.13;15.50;;;7.80;99.90;;;;;;5026205;28;20041;-61
2020/12/16 03:13:47;;;;;;;28.40;16.58;;;7.80;99.90;;;;;;5041161;28;20064;-63
2020/12/16 03:16:19;;;;;;;24.35;16.70;;;7.80;99.90;;;;;;5031700;28;20056;-63
2020/12/16 03:18:45;;;;;;;27.10;16.02;;;7.80;99.90;;;;;;5039212;28;20025;-62
2020/12/16 03:21:10;;;;;;;22.42;16.15;;;7.80;99.90;;;;;;5038766;28;20028;-62
2020/12/16 03:23:36;;;;;;;23.80;15.15;;;7.80;99.90;;;;;;5034105;28;20382;-62
2020/12/16 03:26:05;;;;;;;24.63;15.75;;;7.70;99.90;;;;;;5035820;28;20511;-62
2020/12/16 03:28:31;;;;;;;24.83;15.73;;;7.70;99.90;;;;;;5025213;28;20032;-62
2020/12/16 03:30:56;;;;;;;26.05;15.70;;;7.80;99.90;;;;;;5042678;28;20029;-62
2020/12/16 03:33:22;;;;;;;24.75;16.67;;;7.80;99.90;;;;;;5035243;28;20017;-62
2020/12/16 03:35:47;;;;;;;23.83;15.73;;;7.80;99.90;;;;;;5041588;28;20497;-62
2020/12/16 03:38:13;;;;;;;21.90;15.02;;;7.80;99.90;;;;;;5034414;28;20551;-63
2020/12/16 03:40:38;;;;;;;23.58;15.05;;;7.80;99.90;;;;;;5042557;28;20021;-61
2020/12/16 03:43:04;;;;;;;27.77;17.08;;;7.80;99.90;;;;;;5041331;28;20064;-63
2020/12/16 03:45:29;;;;;;;21.77;14.55;;;7.80;99.90;;;;;;5047178;28;20021;-63
2020/12/16 03:47:55;;;;;;;24.08;15.95;;;7.80;99.90;;;;;;5034308;28;20014;-62
2020/12/16 03:50:21;;;;;;;25.77;14.73;;;7.80;99.90;;;;;;5026085;28;20688;-62
2020/12/16 03:52:46;;;;;;;23.73;14.23;;;7.80;99.90;;;;;;5020957;28;20016;-61
2020/12/16 03:55:12;;;;;;;20.50;14.18;;;7.80;99.90;;;;;;5039943;28;20021;-61
2020/12/16 03:57:37;;;;;;;24.33;15.32;;;7.80;99.90;;;;;;5022293;28;20025;-62
2020/12/16 04:00:10;;;;;;;25.48;16.48;;;7.70;99.90;;;;;;5040706;28;20107;-62
2020/12/16 04:02:38;;;;;;;23.65;15.55;;;7.70;99.90;;;;;;5043482;28;20025;-60
2020/12/16 04:05:08;;;;;;;24.42;14.68;;;7.70;99.90;;;;;;5009698;28;20506;-61
2020/12/16 04:07:34;;;;;;;21.77;14.85;;;7.60;99.90;;;;;;5040135;28;20021;-62
2020/12/16 04:09:59;;;;;;;23.95;16.23;;;7.70;99.90;;;;;;5042882;28;20027;-61
2020/12/16 04:12:25;;;;;;;25.38;14.88;;;7.60;99.90;;;;;;5040346;28;20039;-61
2020/12/16 04:14:51;;;;;;;26.23;14.63;;;7.60;99.90;;;;;;5038828;28;20054;-61
2020/12/16 04:17:18;;;;;;;24.88;16.30;;;7.50;99.90;;;;;;5041364;28;20064;-60
2020/12/16 04:19:43;;;;;;;28.20;15.77;;;7.50;99.90;;;;;;5031635;28;20037;-60
2020/12/16 04:22:09;;;;;;;23.80;14.70;;;7.50;99.90;;;;;;5040723;28;20387;-61
2020/12/16 04:24:35;;;;;;;23.73;14.60;;;7.40;99.90;;;;;;5038142;28;20029;-62
2020/12/16 04:27:00;;;;;;;26.33;15.55;;;7.40;99.90;;;;;;5034611;28;20086;-60
2020/12/16 04:29:26;;;;;;;24.63;14.90;;;7.40;99.90;;;;;;5038789;28;20427;-62
2020/12/16 04:31:53;;;;;;;28.80;17.17;;;7.40;99.90;;;;;;5037756;28;20022;-60
2020/12/16 04:34:19;;;;;;;29.50;15.98;;;7.40;99.90;;;;;;5039264;28;20052;-62
2020/12/16 04:36:46;;;;;;;30.92;16.33;;;7.40;99.90;;;;;;5039581;28;20104;-61
2020/12/16 04:39:12;;;;;;;23.75;15.88;;;7.30;99.90;;;;;;5040375;28;20036;-62
2020/12/16 04:41:38;;;;;;;30.02;17.73;;;7.30;99.90;;;;;;5044630;28;20032;-62
2020/12/16 04:44:04;;;;;;;33.67;17.30;;;7.20;99.90;;;;;;5039411;28;20041;-61
2020/12/16 04:46:31;;;;;;;26.65;15.60;;;7.20;99.90;;;;;;5043504;28;20045;-62
2020/12/16 04:48:57;;;;;;;26.98;16.23;;;7.20;99.90;;;;;;5027967;28;20117;-61
2020/12/16 04:51:24;;;;;;;29.88;16.63;;;7.30;99.90;;;;;;5040230;28;20112;-61
2020/12/16 04:53:53;;;;;;;27.42;16.27;;;7.30;99.90;;;;;;5038436;28;20116;-62
2020/12/16 04:56:19;;;;;;;32.80;15.90;;;7.30;99.90;;;;;;5035239;28;20502;-61
2020/12/16 04:58:45;;;;;;;26.95;16.63;;;7.30;99.90;;;;;;5038850;28;20040;-61
2020/12/16 05:01:10;;;;;;;27.20;16.02;;;7.30;99.90;;;;;;5039021;28;20095;-62
2020/12/16 05:03:39;;;;;;;29.88;15.48;;;7.30;99.90;;;;;;5041252;28;20056;-61
2020/12/16 05:06:04;;;;;;;29.80;19.13;;;7.30;99.90;;;;;;5023253;28;20128;-62
2020/12/16 05:08:30;;;;;;;21.60;14.02;;;7.30;99.90;;;;;;5041689;28;20112;-61
2020/12/16 05:10:55;;;;;;;27.70;16.15;;;7.30;99.90;;;;;;5037662;28;20059;-61
2020/12/16 05:13:24;;;;;;;27.48;16.27;;;7.20;99.90;;;;;;5035777;28;20037;-61
2020/12/16 05:15:50;;;;;;;27.17;16.38;;;7.20;99.90;;;;;;5028758;28;20042;-62
2020/12/16 05:18:17;;;;;;;30.50;16.98;;;7.20;99.90;;;;;;5030119;28;20740;-62
2020/12/16 05:20:44;;;;;;;25.85;15.52;;;7.20;99.90;;;;;;5034793;28;20029;-62
2020/12/16 05:23:10;;;;;;;25.95;16.20;;;7.20;99.90;;;;;;5033101;28;20033;-62
2020/12/16 05:25:37;;;;;;;26.40;15.65;;;7.20;99.90;;;;;;5037707;28;20021;-61
2020/12/16 05:28:03;;;;;;;26.50;14.95;;;7.30;99.90;;;;;;5028215;28;20482;-62
2020/12/16 05:30:30;;;;;;;26.83;15.75;;;7.30;99.90;;;;;;5038015;28;20016;-62
2020/12/16 05:32:59;;;;;;;28.33;15.77;;;7.30;99.90;;;;;;5034271;28;20045;-63
2020/12/16 05:35:28;;;;;;;25.45;15.15;;;7.30;99.90;;;;;;5032689;28;20025;-61
2020/12/16 05:38:04;;;;;;;25.95;16.00;;;7.20;99.90;;;;;;5034968;28;20482;-62
2020/12/16 05:40:31;;;;;;;25.73;15.55;;;7.10;99.90;;;;;;5034096;28;20035;-61
2020/12/16 05:42:57;;;;;;;26.70;15.82;;;7.00;99.90;;;;;;5037644;28;20025;-60
2020/12/16 05:45:26;;;;;;;26.20;15.48;;;7.00;99.90;;;;;;5039278;28;20036;-62
2020/12/16 05:48:11;;;;;;;32.38;18.17;;;6.90;99.90;;;;;;5037222;28;20730;-61
2020/12/16 05:50:57;;;;;;;29.92;16.33;;;6.80;99.90;;;;;;5029907;28;20098;-61
2020/12/16 05:53:24;;;;;;;33.28;16.67;;;6.70;99.90;;;;;;5031144;28;20044;-60
2020/12/16 05:55:51;;;;;;;35.75;18.70;;;6.70;99.90;;;;;;5037756;28;20534;-61
2020/12/16 05:58:19;;;;;;;34.00;18.77;;;6.70;99.90;;;;;;5038376;28;20575;-60
2020/12/16 06:00:56;;;;;;;32.70;18.90;;;6.70;99.90;;;;;;5037501;28;20166;-62
2020/12/16 06:03:27;;;;;;;35.42;19.75;;;6.80;99.90;;;;;;5031010;28;20563;-61
2020/12/16 06:05:56;;;;;;;36.90;19.50;;;6.80;99.90;;;;;;5014735;28;20063;-62
2020/12/16 06:08:23;;;;;;;33.78;19.35;;;6.90;99.90;;;;;;5038830;28;20047;-60
2020/12/16 06:10:50;;;;;;;25.50;14.90;;;6.90;99.90;;;;;;5037027;28;20021;-61
2020/12/16 06:13:17;;;;;;;30.77;16.05;;;7.00;99.90;;;;;;5039042;28;20086;-61
2020/12/16 06:15:48;;;;;;;23.38;15.10;;;7.10;99.90;;;;;;5038110;28;20040;-61
2020/12/16 06:18:18;;;;;;;23.65;15.38;;;7.10;99.90;;;;;;5035853;28;20030;-61
2020/12/16 06:20:44;;;;;;;23.33;14.07;;;7.10;99.90;;;;;;5040269;28;20029;-62
2020/12/16 06:23:20;;;;;;;23.55;14.85;;;7.10;99.90;;;;;;5034496;28;20017;-62
2020/12/16 06:25:48;;;;;;;22.63;13.65;;;7.10;99.90;;;;;;5024231;28;20033;-58
2020/12/16 06:28:14;;;;;;;29.10;14.85;;;7.10;99.90;;;;;;5026341;28;20395;-61
2020/12/16 06:30:50;;;;;;;24.63;14.52;;;7.00;99.90;;;;;;5025522;28;20022;-60
2020/12/16 06:33:21;;;;;;;22.40;13.13;;;7.00;99.90;;;;;;5027531;28;20557;-61
2020/12/16 06:35:47;;;;;;;24.40;13.88;;;6.90;99.90;;;;;;5035147;28;20032;-61
2020/12/16 06:38:19;;;;;;;27.55;14.68;;;6.90;99.90;;;;;;5039272;28;20021;-62
2020/12/16 06:40:49;;;;;;;30.25;15.07;;;6.80;99.90;;;;;;5039412;28;20112;-62
2020/12/16 06:43:30;;;;;;;30.13;17.90;;;6.70;99.90;;;;;;5037638;28;20684;-60
2020/12/16 06:45:56;;;;;;;37.20;21.73;;;6.60;99.90;;;;;;5039605;28;20087;-61
2020/12/16 06:48:36;;;;;;;41.85;26.25;;;6.50;99.90;;;;;;5030382;28;20044;-62
2020/12/16 06:51:14;;;;;;;32.78;21.33;;;6.50;99.90;;;;;;5035063;28;20033;-61
2020/12/16 06:53:40;;;;;;;27.92;17.13;;;6.40;99.90;;;;;;5037738;28;20116;-60
2020/12/16 06:56:06;;;;;;;31.67;18.50;;;6.40;99.90;;;;;;5037062;28;20104;-61
2020/12/16 06:58:38;;;;;;;36.67;19.50;;;6.30;99.90;;;;;;5032807;28;20029;-61
2020/12/16 07:01:13;;;;;;;37.20;19.63;;;6.40;99.90;;;;;;5032177;28;20564;-62
2020/12/16 07:03:39;;;;;;;34.38;19.88;;;6.40;99.90;;;;;;5021696;28;20034;-61
2020/12/16 07:06:29;;;;;;;33.55;20.40;;;6.30;99.90;;;;;;5012237;28;20779;-60
2020/12/16 07:09:21;;;;;;;36.22;20.33;;;6.30;99.90;;;;;;5030315;28;20021;-61
2020/12/16 07:11:56;;;;;;;34.78;22.33;;;6.30;99.90;;;;;;5029990;28;20045;-62
2020/12/16 07:14:25;;;;;;;42.80;25.25;;;6.30;99.90;;;;;;5038035;28;20022;-60
2020/12/16 07:16:51;;;;;;;39.78;21.65;;;6.30;99.90;;;;;;5038146;28;20057;-61
2020/12/16 07:19:26;;;;;;;33.03;17.83;;;6.20;99.90;;;;;;5038980;28;20040;-62
2020/12/16 07:21:52;;;;;;;38.22;21.38;;;6.20;99.90;;;;;;5036752;28;20395;-62
2020/12/16 07:24:18;;;;;;;32.88;18.98;;;6.10;99.90;;;;;;5035942;28;20030;-62
2020/12/16 07:26:43;;;;;;;31.35;18.17;;;6.10;99.90;;;;;;5018307;28;20052;-62
2020/12/16 07:29:32;;;;;;;38.88;19.90;;;6.10;99.90;;;;;;5027053;28;20029;-62
2020/12/16 07:32:04;;;;;;;30.17;16.70;;;6.10;99.90;;;;;;5038877;28;20024;-62
2020/12/16 07:34:32;;;;;;;52.38;30.92;;;6.10;99.90;;;;;;5040104;28;20059;-62
2020/12/16 07:37:02;;;;;;;153.85;105.57;;;6.20;99.90;;;;;;5035985;28;20029;-61
2020/12/16 07:39:29;;;;;;;62.97;42.33;;;6.20;99.90;;;;;;5040269;28;20025;-61
2020/12/16 07:41:56;;;;;;;33.47;17.70;;;6.30;99.90;;;;;;5043299;28;20033;-59
2020/12/16 07:44:22;;;;;;;31.20;16.98;;;6.40;99.90;;;;;;5043735;28;20060;-60
2020/12/16 07:46:47;;;;;;;28.77;16.70;;;6.50;99.90;;;;;;5040822;28;20056;-61
2020/12/16 07:49:16;;;;;;;23.58;14.13;;;6.60;99.90;;;;;;5027497;28;20478;-61
2020/12/16 07:51:42;;;;;;;31.10;19.17;;;6.60;99.90;;;;;;5044399;28;20017;-60
2020/12/16 07:54:08;;;;;;;25.23;13.88;;;6.60;99.90;;;;;;5032790;28;20053;-61
2020/12/16 07:56:33;;;;;;;31.67;20.42;;;6.70;99.90;;;;;;5044139;28;20731;-61
2020/12/16 07:59:09;;;;;;;27.48;18.52;;;6.70;99.90;;;;;;5037231;28;20025;-60
2020/12/16 08:01:35;;;;;;;25.58;14.57;;;6.70;99.90;;;;;;5020447;28;20029;-61
2020/12/16 08:04:00;;;;;;;21.70;13.07;;;6.70;99.90;;;;;;5038404;28;20585;-63
2020/12/16 08:06:26;;;;;;;17.27;11.52;;;6.70;99.90;;;;;;5014836;28;20034;-62
2020/12/16 08:08:52;;;;;;;20.48;11.75;;;6.80;99.90;;;;;;5043973;28;20116;-63
2020/12/16 08:11:22;;;;;;;21.90;13.23;;;6.80;99.90;;;;;;5036732;28;20014;-62
2020/12/16 08:13:48;;;;;;;27.65;16.67;;;6.70;99.90;;;;;;5044588;28;20040;-63
2020/12/16 08:16:15;;;;;;;39.20;27.02;;;6.70;99.90;;;;;;5029781;28;20029;-62
2020/12/16 08:18:48;;;;;;;26.15;14.73;;;6.80;99.90;;;;;;5030863;28;20029;-63
2020/12/16 08:21:19;;;;;;;21.73;14.88;;;6.80;99.90;;;;;;5037494;28;20033;-61
2020/12/16 08:23:45;;;;;;;22.00;12.43;;;6.80;99.90;;;;;;5034376;28;20075;-61
2020/12/16 08:26:11;;;;;;;18.00;11.88;;;6.80;99.90;;;;;;5042208;28;20022;-62
2020/12/16 08:28:36;;;;;;;18.60;12.35;;;6.90;99.90;;;;;;5037108;28;20052;-62
2020/12/16 08:31:03;;;;;;;21.02;12.95;;;6.90;99.90;;;;;;5044459;28;20088;-62
2020/12/16 08:33:30;;;;;;;18.38;12.70;;;6.90;99.90;;;;;;5036253;28;20013;-62
2020/12/16 08:36:06;;;;;;;19.20;12.48;;;6.90;99.90;;;;;;5032906;28;20151;-62
2020/12/16 08:38:41;;;;;;;17.55;12.23;;;7.00;99.90;;;;;;5038928;28;20040;-62
2020/12/16 08:41:11;;;;;;;19.05;12.00;;;7.00;99.90;;;;;;5036873;28;20086;-62
2020/12/16 08:43:43;;;;;;;18.92;12.48;;;7.10;99.90;;;;;;5040343;28;20021;-62
2020/12/16 08:46:19;;;;;;;18.15;12.07;;;7.10;99.90;;;;;;5030085;28;20032;-63
2020/12/16 08:48:49;;;;;;;22.60;15.15;;;7.10;99.90;;;;;;5032954;28;20040;-62
2020/12/16 08:51:17;;;;;;;20.60;13.32;;;7.20;99.90;;;;;;5032061;28;20033;-63
2020/12/16 08:53:50;;;;;;;19.00;13.45;;;7.20;99.90;;;;;;5025538;28;20063;-62
2020/12/16 08:56:45;;;;;;;17.85;11.15;;;7.20;99.90;;;;;;5040282;28;20445;-61
2020/12/16 08:59:16;;;;;;;18.60;11.43;;;7.40;99.90;;;;;;5032428;28;20025;-61
2020/12/16 09:01:44;;;;;;;19.55;12.70;;;7.40;99.90;;;;;;5042435;28;20091;-61
2020/12/16 09:04:11;;;;;;;21.20;14.07;;;7.50;99.90;;;;;;5024569;28;20041;-62
2020/12/16 09:06:37;;;;;;;16.33;10.90;;;7.60;99.90;;;;;;5021905;28;20449;-62
2020/12/16 09:09:13;;;;;;;13.38;9.57;;;7.70;99.90;;;;;;5042913;28;20113;-62
2020/12/16 09:11:47;;;;;;;13.32;9.38;;;7.70;99.90;;;;;;5027297;28;20096;-61
2020/12/16 09:14:13;;;;;;;13.95;10.32;;;7.80;99.90;;;;;;5031785;28;20033;-61
2020/12/16 09:16:38;;;;;;;13.75;9.77;;;7.90;99.90;;;;;;5035958;28;20025;-62
2020/12/16 09:19:04;;;;;;;20.40;13.60;;;7.90;99.90;;;;;;5034966;28;20025;-62
2020/12/16 09:21:35;;;;;;;16.10;12.02;;;8.00;99.90;;;;;;5038193;28;20104;-63
2020/12/16 09:24:05;;;;;;;14.60;9.80;;;8.00;99.90;;;;;;5038584;28;20037;-62
2020/12/16 09:26:42;;;;;;;14.38;10.55;;;8.10;99.90;;;;;;5038501;28;20029;-63
2020/12/16 09:29:34;;;;;;;17.08;11.95;;;8.20;99.90;;;;;;5023514;28;20150;-59
2020/12/16 09:32:19;;;;;;;13.82;10.20;;;8.10;99.90;;;;;;5036689;28;20044;-61
2020/12/16 09:34:48;;;;;;;;;;;8.20;99.90;;;;;;5033274;28;20385;-62
2020/12/16 09:37:19;;;;;;;12.98;9.57;;;8.20;99.90;;;;;;5037591;28;20793;-63
2020/12/16 09:39:47;;;;;;;18.50;12.40;;;8.40;99.90;;;;;;5038314;28;20105;-63
2020/12/16 09:42:15;;;;;;;17.15;10.10;;;8.60;99.90;;;;;;5039703;28;20022;-63
2020/12/16 09:44:41;;;;;;;11.95;10.07;;;8.60;99.90;;;;;;5033276;28;20049;-61
2020/12/16 09:47:16;;;;;;;13.98;10.77;;;8.70;99.90;;;;;;5040911;28;20029;-62
2020/12/16 09:49:43;;;;;;;14.73;10.48;;;8.60;99.90;;;;;;5023888;28;20017;-63
2020/12/16 09:52:29;;;;;;;24.95;16.98;;;8.60;99.90;;;;;;5041644;28;20394;-63
2020/12/16 09:54:55;;;;;;;30.63;19.83;;;8.60;99.90;;;;;;5035811;28;20502;-62
2020/12/16 09:57:22;;;;;;;24.38;17.27;;;8.60;99.90;;;;;;5040518;28;20029;-62
2020/12/16 09:59:48;;;;;;;18.52;12.10;;;8.60;99.90;;;;;;5036085;28;20076;-62
2020/12/16 10:02:15;;;;;;;37.20;26.35;;;8.60;99.90;;;;;;5031370;28;20029;-63
2020/12/16 10:04:40;;;;;;;20.50;15.00;;;8.60;99.90;;;;;;5015497;28;20441;-63
2020/12/16 10:07:06;;;;;;;20.00;14.23;;;8.70;99.90;;;;;;5038170;28;20029;-62
2020/12/16 10:09:35;;;;;;;19.48;15.50;;;8.60;99.90;;;;;;5035525;28;20104;-61
2020/12/16 10:12:04;;;;;;;16.02;11.57;;;8.70;99.90;;;;;;5031927;28;20064;-60
2020/12/16 10:14:30;;;;;;;23.50;15.55;;;8.70;99.90;;;;;;5042643;28;20025;-61
2020/12/16 10:16:55;;;;;;;17.85;13.20;;;8.70;99.90;;;;;;5037062;28;20112;-63
2020/12/16 10:19:21;;;;;;;44.45;28.55;;;8.80;99.90;;;;;;5038162;28;20028;-63
2020/12/16 10:21:48;;;;;;;18.92;13.98;;;8.90;99.90;;;;;;5035418;28;20030;-62
2020/12/16 10:24:16;;;;;;;12.02;9.85;;;8.90;99.90;;;;;;5020320;28;20095;-62
2020/12/16 10:26:46;;;;;;;16.15;10.10;;;9.00;99.90;;;;;;5016587;28;20029;-63
2020/12/16 10:29:12;;;;;;;14.30;9.85;;;9.00;99.90;;;;;;5024127;28;20029;-63
2020/12/16 10:31:37;;;;;;;13.57;10.82;;;9.00;99.90;;;;;;5027336;28;20018;-62
2020/12/16 10:34:03;;;;;;;15.15;10.95;;;9.00;99.90;;;;;;5034339;28;20394;-63
2020/12/16 10:36:30;;;;;;;14.80;10.23;;;9.00;99.90;;;;;;5027288;28;20029;-58
2020/12/16 10:38:55;;;;;;;16.40;12.07;;;9.00;99.90;;;;;;5023127;28;20298;-63
2020/12/16 10:41:21;;;;;;;13.77;10.85;;;9.00;99.90;;;;;;5042566;28;20111;-62
2020/12/16 10:43:46;;;;;;;15.60;11.05;;;9.00;99.90;;;;;;5037798;28;20029;-62
2020/12/16 10:46:12;;;;;;;14.30;12.15;;;9.10;99.90;;;;;;5034611;28;20033;-63
2020/12/16 10:48:38;;;;;;;13.73;10.57;;;9.10;99.90;;;;;;5026195;28;20117;-61
2020/12/16 10:51:03;;;;;;;13.23;11.75;;;9.10;99.90;;;;;;5036202;28;20096;-62
2020/12/16 10:53:29;;;;;;;15.73;10.13;;;9.20;99.90;;;;;;5037337;28;20037;-62
2020/12/16 10:55:56;;;;;;;11.80;9.43;;;9.30;99.90;;;;;;5037020;28;20394;-62
2020/12/16 10:58:22;;;;;;;13.88;10.63;;;9.40;99.90;;;;;;5037060;28;20095;-60
2020/12/16 11:00:48;;;;;;;12.73;9.75;;;9.50;99.90;;;;;;5034990;28;20029;-62
2020/12/16 11:03:13;;;;;;;13.27;10.75;;;9.70;99.90;;;;;;5032642;28;20031;-61
2020/12/16 11:05:39;;;;;;;11.02;9.30;;;9.80;99.90;;;;;;5023115;28;20041;-61
2020/12/16 11:08:04;;;;;;;10.70;9.60;;;10.10;99.90;;;;;;5021182;28;20032;-60
2020/12/16 11:10:30;;;;;;;13.05;8.90;;;10.40;99.90;;;;;;5019244;28;20022;-62
2020/12/16 11:12:55;;;;;;;9.10;8.00;;;10.60;99.90;;;;;;5032928;28;20403;-62
2020/12/16 11:15:21;;;;;;;7.47;6.57;;;10.70;99.90;;;;;;5026192;28;20022;-60
2020/12/16 11:17:46;;;;;;;8.07;7.00;;;10.80;99.90;;;;;;5017742;28;20029;-60
2020/12/16 11:20:12;;;;;;;8.80;6.85;;;10.70;99.90;;;;;;5024373;28;20032;-62
2020/12/16 11:22:38;;;;;;;7.90;6.95;;;10.60;99.90;;;;;;5031309;28;20098;-60
2020/12/16 11:25:05;;;;;;;11.50;7.93;;;10.60;99.90;;;;;;5033952;28;20017;-62
2020/12/16 11:27:30;;;;;;;7.88;6.75;;;10.70;99.90;;;;;;5020069;28;20033;-61
2020/12/16 11:29:56;;;;;;;9.32;7.38;;;10.70;99.90;;;;;;5027309;28;20025;-60
2020/12/16 11:32:21;;;;;;;10.93;7.00;;;10.70;99.90;;;;;;5024978;28;20022;-61
2020/12/16 11:34:47;;;;;;;9.25;7.63;;;10.70;99.90;;;;;;5032748;28;20027;-62
2020/12/16 11:37:14;;;;;;;9.88;7.63;;;10.70;99.90;;;;;;5022313;28;20507;-62
2020/12/16 11:39:40;;;;;;;8.65;7.70;;;10.60;99.90;;;;;;5026202;28;20021;-60
2020/12/16 11:42:07;;;;;;;8.23;7.10;;;10.60;99.90;;;;;;5025099;28;20251;-63
2020/12/16 11:44:33;;;;;;;9.43;8.43;;;10.60;99.90;;;;;;5020262;28;20112;-63
2020/12/16 11:46:59;;;;;;;9.93;7.93;;;10.60;99.90;;;;;;5023211;28;20128;-63
2020/12/16 11:49:25;;;;;;;8.95;7.35;;;10.70;99.90;;;;;;5017735;28;20030;-63
2020/12/16 11:51:51;;;;;;;10.48;8.30;;;10.60;99.90;;;;;;5021318;28;20113;-63
2020/12/16 11:54:17;;;;;;;13.18;8.75;;;10.60;99.90;;;;;;5033330;28;20033;-62
2020/12/16 11:56:43;;;;;;;9.80;6.85;;;10.60;99.90;;;;;;5010255;28;20038;-63
2020/12/16 11:59:09;;;;;;;12.20;7.90;;;10.60;99.90;;;;;;5022414;28;20092;-62
2020/12/16 12:01:35;;;;;;;9.75;7.35;;;10.50;99.90;;;;;;5031545;28;20065;-62
2020/12/16 12:04:15;;;;;;;8.45;7.30;;;10.50;99.90;;;;;;5025253;28;20049;-62
2020/12/16 12:06:43;;;;;;;9.80;7.28;;;10.50;99.90;;;;;;5011459;28;20187;-62
2020/12/16 12:09:10;;;;;;;94.97;48.40;;;10.40;99.90;;;;;;5034582;28;20014;-62
2020/12/16 12:11:35;;;;;;;24.50;14.10;;;10.40;99.90;;;;;;5028843;28;20033;-61
2020/12/16 12:14:01;;;;;;;13.82;9.77;;;10.30;99.90;;;;;;5026814;28;20499;-61
2020/12/16 12:16:27;;;;;;;9.30;7.35;;;10.30;99.90;;;;;;5028892;28;20025;-61
2020/12/16 12:18:52;;;;;;;11.05;8.63;;;10.30;99.90;;;;;;5038435;28;20025;-61
2020/12/16 12:21:18;;;;;;;12.43;8.07;;;10.30;99.90;;;;;;5030951;28;20025;-60
2020/12/16 12:23:44;;;;;;;10.20;8.05;;;10.40;99.90;;;;;;5032084;28;20029;-62
2020/12/16 12:26:10;;;;;;;8.30;6.38;;;10.30;99.90;;;;;;4973997;28;20038;-61
2020/12/16 12:28:35;;;;;;;8.25;6.78;;;10.30;99.90;;;;;;5015224;28;20064;-61
2020/12/16 12:31:01;;;;;;;8.68;7.10;;;10.30;99.90;;;;;;5014832;28;20014;-61
2020/12/16 12:33:27;;;;;;;8.00;5.72;;;10.40;99.90;;;;;;5017036;28;20045;-62
2020/12/16 12:35:53;;;;;;;14.35;7.00;;;10.40;99.90;;;;;;5017003;28;20117;-61
2020/12/16 12:38:19;;;;;;;8.43;6.20;;;10.40;99.90;;;;;;5040746;28;20021;-61
2020/12/16 12:40:44;;;;;;;7.93;6.57;;;10.40;99.90;;;;;;5033788;28;20029;-61